Time;durP1;ratioP1;P1;durP2;ratioP2;P2;SDS_P1;SDS_P2;PMS_P1;PMS_P2;Temp;Humidity;BMP_temperature;BMP_pressure;BME280_temperature;BME280_humidity;BME280_pressure;Samples;Min_cycle;Max_cycle;Signal;HPM_P1;HPM_P2
2022/05/02 00:02:25;;;;;;;17.38;13.63;;;;;;;13.18;100.00;99566.06;5003726;28;20121;-88
2022/05/02 00:04:51;;;;;;;18.20;13.63;;;;;;;13.22;100.00;99568.13;4986245;28;20037;-84
2022/05/02 00:07:18;;;;;;;16.48;13.38;;;;;;;13.14;100.00;99555.94;4981256;28;20038;-87
2022/05/02 00:09:43;;;;;;;16.67;13.02;;;;;;;13.20;100.00;99559.59;4990583;28;20060;-86
2022/05/02 00:12:09;;;;;;;18.45;13.85;;;;;;;12.86;100.00;99503.34;5012666;28;20030;-86
2022/05/02 00:14:36;;;;;;;20.65;15.02;;;;;;;13.20;100.00;99558.78;5017266;28;20132;-84
2022/05/02 00:17:03;;;;;;;20.13;13.93;;;;;;;12.95;100.00;99517.97;5002474;28;20033;-84
2022/05/02 00:19:28;;;;;;;19.00;14.15;;;;;;;13.03;100.00;99529.34;4991044;28;20069;-86
2022/05/02 00:21:54;;;;;;;23.38;14.90;;;;;;;12.98;100.00;99516.75;5019810;28;20119;-84
2022/05/02 00:24:20;;;;;;;22.67;16.38;;;;;;;13.15;100.00;99546.19;4985643;28;20109;-85
2022/05/02 00:26:45;;;;;;;19.73;15.30;;;;;;;13.24;100.00;99547.66;4993676;28;20121;-84
2022/05/02 00:29:11;;;;;;;22.48;15.45;;;;;;;13.20;100.00;99556.97;5016533;28;20029;-85
2022/05/02 00:31:55;;;;;;;20.45;14.95;;;;;;;13.23;100.00;99556.56;5003280;28;20388;-85
2022/05/02 00:34:47;;;;;;;24.90;16.67;;;;;;;13.13;100.00;99556.94;5011371;28;20030;-85
2022/05/02 00:37:15;;;;;;;21.10;16.80;;;;;;;12.97;100.00;99542.31;4992719;28;20099;-85
2022/05/02 00:39:41;;;;;;;23.33;17.15;;;;;;;12.86;100.00;99537.59;5005931;28;20056;-86
2022/05/02 00:42:07;;;;;;;25.50;17.77;;;;;;;12.57;100.00;99499.97;4988776;28;20034;-85
2022/05/02 00:44:32;;;;;;;26.70;18.13;;;;;;;12.45;100.00;99477.88;5012600;28;20436;-87
2022/05/02 00:46:58;;;;;;;24.55;17.77;;;;;;;12.74;100.00;99524.19;5012420;28;20036;-85
2022/05/02 00:49:26;;;;;;;23.50;16.90;;;;;;;12.79;100.00;99537.56;4994993;28;20075;-85
2022/05/02 00:51:52;;;;;;;22.48;16.63;;;;;;;12.85;100.00;99539.41;5002645;28;20117;-84
2022/05/02 00:54:17;;;;;;;23.10;16.73;;;;;;;12.86;100.00;99533.13;5003450;28;20105;-86
2022/05/02 00:56:43;;;;;;;23.02;16.98;;;;;;;12.69;100.00;99511.59;5014302;28;20021;-86
2022/05/02 00:59:14;;;;;;;26.40;18.63;;;;;;;12.59;100.00;99502.44;5012934;28;20040;-87
2022/05/02 01:01:40;;;;;;;24.70;17.77;;;;;;;12.85;100.00;99549.94;5004910;28;20116;-87
2022/05/02 01:04:10;;;;;;;22.92;17.30;;;;;;;12.37;100.00;99469.13;4982765;28;20481;-87
2022/05/02 01:09:32;;;;;;;24.20;16.95;;;;;;;12.79;100.00;99544.69;5011634;28;20065;-85
2022/05/02 01:12:03;;;;;;;27.70;17.35;;;;;;;12.74;100.00;99528.63;5000548;28;20120;-86
2022/05/02 01:14:57;;;;;;;23.33;17.40;;;;;;;12.62;100.00;99507.31;4982617;28;20112;-85
2022/05/02 01:17:27;;;;;;;25.13;17.33;;;;;;;12.85;100.00;99547.31;5008421;28;20412;-85
2022/05/02 01:19:53;;;;;;;23.48;17.25;;;;;;;12.82;100.00;99545.06;4986070;28;20037;-87
2022/05/02 01:22:21;;;;;;;24.38;17.60;;;;;;;12.67;100.00;99515.41;4998475;28;20038;-86
2022/05/02 01:24:50;;;;;;;26.77;18.10;;;;;;;12.71;100.00;99543.81;4994056;28;20034;-87
2022/05/02 01:27:17;;;;;;;22.60;17.17;;;;;;;12.81;100.00;99540.03;5002946;28;20045;-87
2022/05/02 01:29:44;;;;;;;25.92;17.73;;;;;;;12.64;100.00;99500.03;5021100;28;20037;-87
2022/05/02 01:32:12;;;;;;;25.75;17.38;;;;;;;12.83;100.00;99525.63;5012662;28;20065;-89
2022/05/02 01:34:40;;;;;;;25.27;17.35;;;;;;;12.92;100.00;99547.34;5012785;28;20054;-86
2022/05/02 01:37:06;;;;;;;25.75;17.33;;;;;;;12.85;100.00;99528.88;5001549;28;20033;-85
2022/05/02 01:39:33;;;;;;;25.23;17.38;;;;;;;12.92;100.00;99549.97;5017859;28;20058;-87
2022/05/02 01:42:01;;;;;;;28.33;18.52;;;;;;;12.83;100.00;99545.91;5002725;28;20045;-86
2022/05/02 01:44:27;;;;;;;26.95;18.60;;;;;;;12.75;100.00;99540.78;5015638;28;20026;-87
2022/05/02 01:47:00;;;;;;;26.25;19.45;;;;;;;12.75;100.00;99544.25;4987405;28;20052;-88
2022/05/02 01:49:26;;;;;;;27.70;18.60;;;;;;;12.85;100.00;99549.16;5027270;28;20029;-85
2022/05/02 01:51:52;;;;;;;25.90;18.50;;;;;;;12.83;100.00;99543.28;5006170;28;20029;-83
2022/05/02 01:54:17;;;;;;;27.42;19.00;;;;;;;12.75;100.00;99548.69;4989922;28;20048;-85
2022/05/02 01:56:43;;;;;;;30.27;19.75;;;;;;;12.73;100.00;99553.34;5004712;28;20080;-86
2022/05/02 01:59:09;;;;;;;28.13;19.13;;;;;;;12.67;100.00;99537.31;4997783;28;20034;-83
2022/05/02 02:01:35;;;;;;;24.38;17.58;;;;;;;12.86;100.00;99556.03;5006440;28;20033;-83
2022/05/02 02:05:48;;;;;;;29.20;20.15;;;;;;;12.74;100.00;99557.59;5006891;28;20030;-84
2022/05/02 02:06:47;;;;;;;31.38;20.00;;;;;;;12.56;100.00;99551.03;5015583;28;20108;-84
2022/05/02 02:09:12;;;;;;;27.73;19.13;;;;;;;12.57;100.00;99552.66;5018976;28;20065;-83
2022/05/02 02:11:39;;;;;;;26.88;18.50;;;;;;;12.63;100.00;99546.63;4997796;28;20034;-83
2022/05/02 02:14:04;;;;;;;28.85;19.40;;;;;;;12.63;100.00;99535.25;4995285;28;20034;-86
2022/05/02 02:16:30;;;;;;;28.15;18.75;;;;;;;12.68;100.00;99549.47;5003033;28;20026;-85
2022/05/02 02:18:55;;;;;;;27.30;18.30;;;;;;;12.57;100.00;99526.31;5014766;28;20030;-85
2022/05/02 02:21:21;;;;;;;25.85;17.65;;;;;;;12.88;100.00;99559.28;5005437;28;20034;-85
2022/05/02 02:23:46;;;;;;;26.52;18.65;;;;;;;12.80;100.00;99546.31;4985917;28;20443;-85
2022/05/02 02:26:12;;;;;;;22.52;16.85;;;;;;;12.84;100.00;99550.16;5001903;28;20561;-85
2022/05/02 02:28:38;;;;;;;24.48;16.67;;;;;;;12.75;100.00;99532.88;5013558;28;20034;-84
2022/05/02 02:31:04;;;;;;;24.55;17.73;;;;;;;12.68;100.00;99515.25;5015384;28;20081;-86
2022/05/02 02:33:30;;;;;;;24.20;17.55;;;;;;;12.90;100.00;99543.28;5015008;28;20476;-85
2022/05/02 02:35:55;;;;;;;24.23;18.13;;;;;;;12.98;100.00;99554.47;4990183;28;20029;-86
2022/05/02 02:38:21;;;;;;;24.30;18.13;;;;;;;12.89;100.00;99531.94;5011094;28;20057;-85
2022/05/02 02:40:48;;;;;;;24.85;17.27;;;;;;;12.78;100.00;99521.97;5002492;28;20456;-86
2022/05/02 02:43:14;;;;;;;25.58;17.50;;;;;;;12.89;100.00;99539.03;5020117;28;20030;-86
2022/05/02 02:45:39;;;;;;;23.05;16.75;;;;;;;12.91;100.00;99543.09;5002277;28;20073;-85
2022/05/02 02:48:05;;;;;;;23.58;16.38;;;;;;;12.92;100.00;99534.16;4996114;28;20038;-86
2022/05/02 02:50:40;;;;;;;24.17;16.73;;;;;;;13.02;100.00;99546.19;5023677;28;20030;-86
2022/05/02 02:53:05;;;;;;;22.05;17.08;;;;;;;12.98;100.00;99546.56;5022577;28;20026;-86
2022/05/02 02:55:32;;;;;;;24.15;17.27;;;;;;;12.72;100.00;99505.13;5005128;28;20141;-85
2022/05/02 02:57:57;;;;;;;25.75;18.27;;;;;;;12.95;100.00;99539.03;5003779;28;20033;-86
2022/05/02 03:00:23;;;;;;;24.88;17.15;;;;;;;12.99;100.00;99548.19;5007261;28;20029;-84
2022/05/02 03:02:50;;;;;;;23.83;16.85;;;;;;;12.61;100.00;99482.81;5014339;28;20470;-86
2022/05/02 03:08:00;;;;;;;24.85;17.77;;;;;;;12.84;100.00;99539.63;5013910;28;20065;-85
2022/05/02 03:10:27;;;;;;;24.70;17.75;;;;;;;12.84;100.00;99537.78;5019511;28;20087;-85
2022/05/02 03:12:54;;;;;;;27.52;18.98;;;;;;;12.47;100.00;99500.34;5021220;28;20113;-86
2022/05/02 03:15:20;;;;;;;30.38;18.52;;;;;;;12.85;100.00;99538.63;5003106;28;20030;-87
2022/05/02 03:17:46;;;;;;;26.63;18.77;;;;;;;12.85;100.00;99539.41;5019981;28;20084;-86
2022/05/02 03:20:11;;;;;;;27.52;18.88;;;;;;;12.80;100.00;99546.31;4999578;28;20435;-85
2022/05/02 03:22:37;;;;;;;30.25;19.58;;;;;;;12.38;100.00;99496.28;5013972;28;20120;-87
2022/05/02 03:25:03;;;;;;;28.95;19.98;;;;;;;12.60;100.00;99525.97;5013722;28;20034;-85
2022/05/02 03:27:28;;;;;;;28.85;19.02;;;;;;;12.73;100.00;99540.16;5006178;28;20037;-86
2022/05/02 03:29:54;;;;;;;28.35;19.67;;;;;;;12.64;100.00;99524.56;5014314;28;20108;-87
2022/05/02 03:32:20;;;;;;;26.17;19.13;;;;;;;12.70;100.00;99528.22;5007173;28;20061;-86
2022/05/02 03:34:46;;;;;;;28.77;19.75;;;;;;;12.25;100.00;99486.50;5010051;28;20030;-85
2022/05/02 03:37:11;;;;;;;26.83;18.90;;;;;;;12.47;100.00;99504.81;5014142;28;20088;-84
2022/05/02 03:39:37;;;;;;;26.25;18.05;;;;;;;12.65;100.00;99515.63;5002939;28;21347;-85
2022/05/02 03:42:02;;;;;;;29.90;19.80;;;;;;;12.64;100.00;99527.19;4988832;28;20037;-87
2022/05/02 03:44:29;;;;;;;26.65;18.30;;;;;;;12.58;100.00;99506.91;5003894;28;20041;-87
2022/05/02 03:46:54;;;;;;;27.23;18.73;;;;;;;12.67;100.00;99521.53;5013593;28;20026;-86
2022/05/02 03:49:20;;;;;;;27.83;18.05;;;;;;;12.65;100.00;99512.19;5009352;28;20499;-88
2022/05/02 03:51:45;;;;;;;26.67;17.65;;;;;;;12.70;100.00;99518.47;5013451;28;20033;-86
2022/05/02 03:54:11;;;;;;;27.15;18.73;;;;;;;12.70;100.00;99521.13;5001226;28;20101;-87
2022/05/02 03:56:36;;;;;;;25.63;18.42;;;;;;;12.79;100.00;99523.59;5013266;28;20022;-87
2022/05/02 03:59:03;;;;;;;24.55;17.35;;;;;;;12.70;100.00;99521.13;5012762;28;20026;-87
2022/05/02 04:01:28;;;;;;;29.80;19.10;;;;;;;12.54;100.00;99479.31;5019406;28;20045;-87
2022/05/02 04:03:54;;;;;;;24.40;16.92;;;;;;;12.74;100.00;99518.09;5020740;28;20029;-86
2022/05/02 04:06:20;;;;;;;26.20;17.75;;;;;;;12.59;100.00;99503.25;5012722;28;20036;-86
2022/05/02 04:08:46;;;;;;;25.20;18.23;;;;;;;12.74;100.00;99518.09;5004596;28;20483;-86
2022/05/02 04:11:11;;;;;;;24.25;17.75;;;;;;;12.45;100.00;99476.03;4996870;28;20037;-86
2022/05/02 04:13:38;;;;;;;26.80;18.98;;;;;;;12.47;100.00;99467.97;5002110;28;20046;-87
2022/05/02 04:16:04;;;;;;;26.90;17.17;;;;;;;12.83;100.00;99527.47;5012849;28;20026;-86
2022/05/02 04:18:29;;;;;;;27.08;18.48;;;;;;;12.85;100.00;99523.59;4992634;28;20040;-85
2022/05/02 04:20:55;;;;;;;23.85;17.35;;;;;;;12.82;100.00;99524.00;5001633;28;21317;-86
2022/05/02 04:23:20;;;;;;;23.85;17.63;;;;;;;12.66;100.00;99504.09;5020906;28;20435;-86
2022/05/02 04:25:46;;;;;;;25.42;17.50;;;;;;;12.77;100.00;99518.53;5021891;28;20419;-87
2022/05/02 04:28:12;;;;;;;24.15;17.60;;;;;;;12.91;100.00;99522.00;5023068;28;20034;-86
2022/05/02 04:30:38;;;;;;;26.83;17.55;;;;;;;12.86;100.00;99513.88;5001504;28;20495;-86
2022/05/02 04:33:04;;;;;;;24.90;17.75;;;;;;;12.89;100.00;99523.22;5018951;28;20026;-87
2022/05/02 04:35:31;;;;;;;27.27;18.67;;;;;;;12.66;100.00;99503.25;5003383;28;20030;-85
2022/05/02 04:37:58;;;;;;;24.35;17.75;;;;;;;12.86;100.00;99529.69;4990288;28;20100;-85
2022/05/02 04:40:24;;;;;;;29.58;18.67;;;;;;;12.85;100.00;99522.81;5001391;28;20048;-85
2022/05/02 04:42:50;;;;;;;24.60;18.15;;;;;;;12.84;100.00;99521.19;5002664;28;20033;-87
2022/05/02 04:45:15;;;;;;;23.95;17.42;;;;;;;12.75;100.00;99503.91;4983429;28;20033;-86
2022/05/02 04:47:41;;;;;;;25.88;17.58;;;;;;;12.92;100.00;99526.25;5012436;28;20491;-86
2022/05/02 04:50:07;;;;;;;27.83;19.15;;;;;;;12.90;100.00;99522.22;5001558;28;20033;-86
2022/05/02 04:52:33;;;;;;;26.73;17.38;;;;;;;12.68;100.00;99475.72;4998988;28;20034;-86
2022/05/02 04:54:59;;;;;;;34.63;19.15;;;;;;;12.88;100.00;99511.06;5018138;28;20419;-87
2022/05/02 04:57:24;;;;;;;27.17;18.75;;;;;;;13.02;100.00;99533.00;4994892;28;20046;-84
2022/05/02 04:59:50;;;;;;;27.60;19.35;;;;;;;12.88;100.00;99519.78;5018289;28;20037;-86
2022/05/02 05:02:15;;;;;;;29.52;20.30;;;;;;;12.77;100.00;99517.69;5003641;28;20030;-87
2022/05/02 05:04:41;;;;;;;30.65;19.98;;;;;;;12.73;100.00;99534.91;4985016;28;20030;-87
2022/05/02 05:07:07;;;;;;;30.13;20.48;;;;;;;12.76;100.00;99513.44;5019790;28;20065;-85
2022/05/02 05:09:33;;;;;;;30.50;20.55;;;;;;;12.99;100.00;99528.91;5000903;28;20025;-86
2022/05/02 05:12:31;;;;;;;33.13;20.90;;;;;;;12.84;100.00;99505.38;5012695;28;20041;-84
2022/05/02 05:18:28;;;;;;;35.67;21.58;;;;;;;12.86;100.00;99519.16;5013902;28;20484;-83
2022/05/02 05:21:04;;;;;;;29.77;20.40;;;;;;;12.99;100.00;99526.28;5004148;28;20048;-85
2022/05/02 05:23:49;;;;;;;36.25;22.80;;;;;;;13.13;100.00;99533.22;5022811;28;20056;-84
2022/05/02 05:26:35;;;;;;;37.22;22.55;;;;;;;13.16;100.00;99529.38;5017701;28;20030;-81
2022/05/02 05:29:30;;;;;;;32.55;21.30;;;;;;;13.29;100.00;99539.16;5002280;28;20037;-85
2022/05/02 05:31:59;;;;;;;33.28;22.05;;;;;;;13.35;100.00;99537.50;4984129;28;20037;-86
2022/05/02 05:34:49;;;;;;;32.72;21.95;;;;;;;13.35;100.00;99540.16;5015393;28;20041;-85
2022/05/02 05:37:58;;;;;;;36.58;22.98;;;;;;;13.26;100.00;99540.34;4983825;28;20038;-86
2022/05/02 05:40:39;;;;;;;32.05;21.45;;;;;;;13.37;100.00;99543.44;5001214;28;20038;-86
2022/05/02 05:43:11;;;;;;;45.58;24.88;;;;;;;13.48;100.00;99542.84;5019413;28;20048;-86
2022/05/02 05:46:13;;;;;;;37.83;25.08;;;;;;;13.60;100.00;99544.91;5014584;28;20030;-87
2022/05/02 05:49:02;;;;;;;40.05;23.42;;;;;;;13.67;100.00;99548.34;4977882;28;20136;-85
2022/05/02 05:51:34;;;;;;;40.25;25.70;;;;;;;13.60;100.00;99537.78;5004405;28;20038;-85
2022/05/02 05:54:03;;;;;;;44.10;26.08;;;;;;;13.78;100.00;99557.47;5021448;28;20506;-87
2022/05/02 05:56:58;;;;;;;37.33;25.23;;;;;;;13.79;100.00;99552.00;5021317;28;20034;-85
2022/05/02 05:59:58;;;;;;;38.53;24.13;;;;;;;13.88;100.00;99551.78;4982812;28;20124;-84
2022/05/02 06:02:47;;;;;;;40.45;25.75;;;;;;;13.84;100.00;99536.38;5018690;28;20049;-88
2022/05/02 06:05:14;;;;;;;41.65;26.23;;;;;;;13.77;100.00;99551.41;4982524;28;20037;-87
2022/05/02 06:07:40;;;;;;;38.13;24.95;;;;;;;13.49;100.00;99499.63;5000812;28;20495;-87
2022/05/02 06:10:09;;;;;;;38.63;25.00;;;;;;;13.57;100.00;99491.53;5019128;28;20029;-88
2022/05/02 06:12:37;;;;;;;39.63;25.27;;;;;;;13.52;100.00;99522.97;5014454;28;20054;-86
2022/05/02 06:20:39;;;;;;;39.08;25.35;;;;;;;14.13;100.00;99550.16;5014489;28;20546;-87
2022/05/02 06:23:12;;;;;;;39.92;26.15;;;;;;;13.91;100.00;99509.16;5007710;28;20030;-86
2022/05/02 06:25:38;;;;;;;37.50;24.58;;;;;;;14.13;100.00;99529.03;5000179;28;20113;-84
2022/05/02 06:28:05;;;;;;;37.40;24.55;;;;;;;14.61;100.00;99572.00;4991029;28;20195;-86
2022/05/02 06:30:34;;;;;;;37.03;23.75;;;;;;;14.68;100.00;99556.94;5004817;28;20034;-85
2022/05/02 06:33:14;;;;;;;33.35;23.27;;;;;;;14.75;100.00;99550.84;5019329;28;20125;-86
2022/05/02 06:36:03;;;;;;;37.60;25.05;;;;;;;14.82;100.00;99573.56;4999772;28;20088;-83
2022/05/02 06:38:37;;;;;;;39.97;25.63;;;;;;;14.90;100.00;99554.03;5000079;28;20120;-84
2022/05/02 06:41:29;;;;;;;42.95;26.40;;;;;;;15.09;100.00;99567.38;5004364;28;20030;-87
2022/05/02 06:44:24;;;;;;;37.47;24.90;;;;;;;15.09;100.00;99554.97;5013495;28;20488;-84
2022/05/02 06:47:00;;;;;;;44.15;27.55;;;;;;;15.14;100.00;99564.91;5006882;28;20041;-82
2022/05/02 06:49:26;;;;;;;39.58;26.52;;;;;;;15.08;100.00;99557.81;5001390;28;20044;-83
2022/05/02 06:51:57;;;;;;;39.60;26.27;;;;;;;15.05;100.00;99555.59;5012661;28;20021;-84
2022/05/02 06:54:47;;;;;;;45.28;29.40;;;;;;;15.28;100.00;99584.97;5012070;28;20037;-84
2022/05/02 06:57:32;;;;;;;44.05;28.98;;;;;;;15.27;100.00;99575.41;5011789;28;20033;-83
2022/05/02 07:00:05;;;;;;;46.15;29.13;;;;;;;15.22;100.00;99580.53;5002216;28;20080;-85
2022/05/02 07:02:43;;;;;;;47.88;30.80;;;;;;;15.43;100.00;99591.81;5001576;28;20041;-84
2022/05/02 07:05:20;;;;;;;48.50;29.40;;;;;;;15.44;100.00;99588.13;4987397;28;20400;-83
2022/05/02 07:07:46;;;;;;;53.47;32.03;;;;;;;15.42;100.00;99598.13;5017304;28;20033;-84
2022/05/02 07:10:20;;;;;;;48.90;30.08;;;;;;;15.40;100.00;99589.59;5022911;28;20033;-84
2022/05/02 07:12:54;;;;;;;;;;;;;;;15.67;100.00;99598.16;5020162;28;20061;-82
2022/05/02 07:15:34;;;;;;;50.15;29.67;;;;;;;15.79;100.00;99590.34;4983995;28;19921;-84
2022/05/02 07:18:23;;;;;;;51.08;31.15;;;;;;;16.00;100.00;99593.69;5006615;28;20048;-84
2022/05/02 07:20:55;;;;;;;51.22;31.73;;;;;;;16.07;100.00;99599.72;4938437;28;20053;-84
2022/05/02 07:23:58;;;;;;;53.92;33.78;;;;;;;16.06;100.00;99595.44;5002531;28;20034;-85
2022/05/02 07:26:27;;;;;;;50.85;31.20;;;;;;;15.90;100.00;99558.91;5001920;28;20068;-85
2022/05/02 07:28:59;;;;;;;48.38;30.48;;;;;;;16.02;100.00;99574.94;4999208;28;20495;-85
2022/05/02 07:31:25;;;;;;;48.13;30.35;;;;;;;16.11;100.00;99577.09;5016651;28;20034;-85
2022/05/02 07:33:53;;;;;;;50.45;30.80;;;;;;;16.15;100.00;99569.50;5003117;28;20488;-84
2022/05/02 07:36:22;;;;;;;47.05;30.90;;;;;;;16.42;100.00;99577.22;5013001;28;20436;-83
2022/05/02 07:39:19;;;;;;;50.80;32.70;;;;;;;16.33;100.00;99595.22;5000172;28;20066;-83
2022/05/02 07:41:46;;;;;;;47.55;30.75;;;;;;;16.44;100.00;99592.88;5006702;28;20053;-83
2022/05/02 07:44:14;;;;;;;49.08;30.60;;;;;;;16.63;100.00;99594.50;5002833;28;20120;-84
2022/05/02 07:46:41;;;;;;;47.53;30.02;;;;;;;16.90;100.00;99596.88;5002817;28;20037;-85
2022/05/02 07:49:08;;;;;;;48.28;30.67;;;;;;;16.89;100.00;99578.50;5004136;28;20126;-84
2022/05/02 07:51:50;;;;;;;46.15;30.65;;;;;;;17.15;100.00;99603.91;5004963;28;20124;-87
2022/05/02 07:54:21;;;;;;;45.17;30.05;;;;;;;17.17;100.00;99590.41;5020403;28;20177;-87
2022/05/02 07:56:50;;;;;;;45.13;29.75;;;;;;;17.43;100.00;99602.53;4987596;28;20034;-87
2022/05/02 07:59:18;;;;;;;46.60;29.75;;;;;;;17.18;100.00;99574.28;5017121;28;20037;-87
2022/05/02 08:01:44;;;;;;;50.03;30.95;;;;;;;17.28;100.00;99585.16;5000082;28;20026;-89
2022/05/02 08:04:14;;;;;;;47.58;30.25;;;;;;;17.61;100.00;99606.97;5017620;28;20041;-86
2022/05/02 08:06:48;;;;;;;45.90;29.73;;;;;;;17.73;100.00;99587.59;5014471;28;20030;-84
2022/05/02 08:09:45;;;;;;;46.60;29.83;;;;;;;18.02;100.00;99609.03;4998930;28;20445;-86
2022/05/02 08:12:13;;;;;;;43.65;29.55;;;;;;;18.10;100.00;99604.19;5017210;28;20117;-84
2022/05/02 08:14:47;;;;;;;41.25;28.30;;;;;;;18.13;100.00;99603.72;4991364;28;20133;-84
2022/05/02 08:17:42;;;;;;;46.10;30.42;;;;;;;17.96;100.00;99592.13;5006253;28;20113;-85
2022/05/02 08:20:28;;;;;;;40.58;28.45;;;;;;;18.20;100.00;99613.44;4953704;28;20045;-84
2022/05/02 08:29:41;;;;;;;40.20;27.70;;;;;;;18.54;100.00;99613.66;4990587;28;20030;-84
2022/05/02 08:32:22;;;;;;;41.10;27.58;;;;;;;18.66;100.00;99617.09;4991436;28;20100;-85
2022/05/02 08:35:16;;;;;;;37.55;25.88;;;;;;;18.58;100.00;99611.34;5005735;28;20036;-86
2022/05/02 08:38:05;;;;;;;37.97;26.38;;;;;;;18.75;100.00;99625.50;4991036;28;20108;-83
2022/05/02 08:41:12;;;;;;;43.55;27.45;;;;;;;18.59;100.00;99632.38;5004194;28;20113;-85
2022/05/02 08:44:16;;;;;;;37.63;26.65;;;;;;;18.68;100.00;99625.66;4989266;28;20042;-84
2022/05/02 08:46:55;;;;;;;37.55;25.20;;;;;;;18.63;100.00;99614.91;4973034;28;20034;-84
2022/05/02 08:49:33;;;;;;;38.33;24.63;;;;;;;19.05;100.00;99627.22;4989956;28;20416;-85
2022/05/02 08:52:46;;;;;;;38.00;25.80;;;;;;;19.05;100.00;99629.06;4992392;28;20179;-86
2022/05/02 08:55:32;;;;;;;34.78;24.63;;;;;;;18.65;100.00;99625.31;4996072;28;20457;-88
2022/05/02 08:58:37;;;;;;;34.78;23.05;;;;;;;18.80;100.00;99632.78;4989337;28;20070;-86
2022/05/02 09:01:24;;;;;;;32.05;23.75;;;;;;;18.55;100.00;99631.22;4990795;28;20404;-89
2022/05/02 09:04:11;;;;;;;34.58;24.83;;;;;;;18.81;100.00;99634.41;4989364;28;20033;-84
2022/05/02 09:06:46;;;;;;;33.00;22.98;;;;;;;19.14;100.00;99630.31;4991565;28;20053;-85
2022/05/02 09:09:11;;;;;;;33.00;23.02;;;;;;;19.16;100.00;99636.19;4989765;28;20023;-84
2022/05/02 09:12:17;;;;;;;32.65;23.00;;;;;;;19.16;99.78;99608.78;4989971;28;20596;-88
2022/05/02 09:15:09;;;;;;;30.48;21.60;;;;;;;19.41;100.00;99622.56;4990088;28;20520;-84
2022/05/02 09:18:12;;;;;;;31.08;22.27;;;;;;;19.55;98.37;99633.72;4986335;28;20509;-88
2022/05/02 09:20:58;;;;;;;33.20;24.00;;;;;;;19.81;96.55;99628.03;4968140;28;20050;-86
2022/05/02 09:23:32;;;;;;;29.83;22.80;;;;;;;19.90;95.54;99628.44;4970179;28;20209;-86
2022/05/02 09:26:00;;;;;;;30.45;23.20;;;;;;;20.08;95.33;99624.75;4968971;28;20027;-85
2022/05/02 09:28:47;;;;;;;29.48;21.58;;;;;;;20.26;96.84;99629.03;4988443;28;20041;-88
2022/05/02 09:31:20;;;;;;;30.17;23.20;;;;;;;19.84;94.37;99632.88;4972729;28;20034;-86
2022/05/02 09:34:09;;;;;;;26.25;20.38;;;;;;;19.73;94.97;99569.81;4954312;28;20478;-86
2022/05/02 09:37:03;;;;;;;28.52;21.52;;;;;;;20.14;95.09;99623.75;4971324;28;20027;-87
2022/05/02 09:40:00;;;;;;;33.83;25.23;;;;;;;19.74;94.34;99598.88;4972984;28;20039;-86
2022/05/02 09:42:40;;;;;;;30.45;22.65;;;;;;;19.75;94.98;99632.47;4974192;28;20109;-86
2022/05/02 09:51:51;;;;;;;26.55;20.67;;;;;;;20.61;94.48;99617.22;4973358;28;20035;-86
2022/05/02 09:57:36;;;;;;;25.88;20.58;;;;;;;20.47;92.49;99606.13;4973031;28;20043;-85
2022/05/02 10:02:50;;;;;;;23.88;19.73;;;;;;;20.39;91.22;99623.34;4974619;28;20035;-86
2022/05/02 10:05:26;;;;;;;23.48;19.35;;;;;;;20.82;92.31;99630.84;4975546;28;20039;-86
2022/05/02 10:08:07;;;;;;;25.65;20.92;;;;;;;21.26;91.41;99617.50;4974401;28;20031;-86
2022/05/02 10:10:59;;;;;;;25.10;20.23;;;;;;;21.03;88.82;99623.91;4979240;28;20493;-86
2022/05/02 10:14:02;;;;;;;26.38;19.83;;;;;;;21.21;88.70;99611.28;4979702;28;20053;-87
2022/05/02 10:16:51;;;;;;;21.75;17.80;;;;;;;21.52;87.53;99617.72;4994303;28;20030;-86
2022/05/02 10:19:38;;;;;;;23.45;19.05;;;;;;;21.76;85.68;99633.47;4993448;28;20034;-87
2022/05/02 10:22:10;;;;;;;21.70;18.05;;;;;;;21.78;85.54;99622.53;4993528;28;20496;-87
2022/05/02 10:24:54;;;;;;;26.88;21.08;;;;;;;20.83;86.10;99629.78;4976071;28;20045;-88
2022/05/02 10:27:44;;;;;;;22.35;17.63;;;;;;;21.68;85.85;99625.91;5007184;28;20470;-87
2022/05/02 10:30:13;;;;;;;23.10;20.13;;;;;;;22.13;84.84;99623.06;5009684;28;20062;-87
2022/05/02 10:32:53;;;;;;;22.98;20.40;;;;;;;21.85;85.66;99620.44;4994690;28;20030;-86
2022/05/02 10:35:21;;;;;;;27.00;21.98;;;;;;;21.75;86.09;99623.84;4992197;28;20038;-88
2022/05/02 10:37:58;;;;;;;25.13;20.98;;;;;;;21.58;84.13;99575.03;4977281;28;20045;-87
2022/05/02 10:40:37;;;;;;;27.90;21.88;;;;;;;21.58;83.68;99591.06;5008751;28;20408;-87
2022/05/02 10:43:05;;;;;;;24.13;20.50;;;;;;;21.16;87.01;99574.66;5009939;28;20026;-90
2022/05/02 10:45:34;;;;;;;27.27;22.90;;;;;;;20.94;85.34;99593.41;4992667;28;20077;-87
2022/05/02 10:48:15;;;;;;;26.75;22.48;;;;;;;21.20;84.81;99618.47;4993279;28;20498;-85
2022/05/02 10:50:50;;;;;;;28.83;21.88;;;;;;;21.40;86.27;99617.88;5009587;28;20405;-89
2022/05/02 10:53:43;;;;;;;24.98;20.05;;;;;;;21.71;84.38;99611.22;4991013;28;20393;-88
2022/05/02 10:56:32;;;;;;;22.52;19.20;;;;;;;21.51;82.25;99564.56;4991847;28;20041;-89
2022/05/02 10:59:01;;;;;;;20.38;16.95;;;;;;;21.36;81.99;99562.56;4993949;28;20084;-86
2022/05/02 11:01:58;;;;;;;20.48;16.60;;;;;;;21.58;83.35;99617.78;4992162;28;20088;-87
2022/05/02 11:04:45;;;;;;;23.42;19.75;;;;;;;21.11;83.68;99620.00;4992350;28;20126;-87
2022/05/02 11:07:38;;;;;;;21.30;18.73;;;;;;;20.90;86.64;99611.75;4989276;28;20373;-87
2022/05/02 11:10:10;;;;;;;24.08;19.95;;;;;;;20.34;86.12;99585.13;4993174;28;20358;-88
2022/05/02 11:12:46;;;;;;;21.75;18.52;;;;;;;19.84;87.20;99545.75;4976866;28;20114;-87
2022/05/02 11:15:24;;;;;;;23.58;17.58;;;;;;;19.97;87.30;99602.47;5009609;28;20489;-88
2022/05/02 11:18:07;;;;;;;22.17;18.02;;;;;;;19.57;87.63;99572.25;5019136;28;20061;-89
2022/05/02 11:20:48;;;;;;;18.75;15.77;;;;;;;20.10;88.83;99612.81;5021891;28;20038;-88
2022/05/02 11:23:48;;;;;;;19.52;16.48;;;;;;;20.01;86.91;99614.25;5019825;28;20033;-88
2022/05/02 11:26:37;;;;;;;25.60;19.48;;;;;;;19.59;88.98;99590.63;4991045;28;20038;-86
2022/05/02 11:29:18;;;;;;;22.27;19.05;;;;;;;19.78;89.76;99610.66;5001384;28;20029;-87
2022/05/02 11:32:16;;;;;;;22.52;18.65;;;;;;;19.80;89.49;99602.44;5004210;28;20041;-86
2022/05/02 11:35:11;;;;;;;26.17;19.65;;;;;;;19.65;89.72;99579.84;4999005;28;20022;-89
2022/05/02 11:37:50;;;;;;;24.00;19.80;;;;;;;19.50;90.16;99561.75;5013763;28;20495;-88
2022/05/02 11:40:18;;;;;;;22.90;19.20;;;;;;;19.35;89.33;99535.66;5013580;28;20030;-87
2022/05/02 11:42:46;;;;;;;25.58;19.67;;;;;;;19.57;89.50;99592.75;4998897;28;20056;-87
2022/05/02 11:45:17;;;;;;;24.90;19.83;;;;;;;19.46;90.09;99567.81;4983549;28;20026;-87
2022/05/02 11:47:53;;;;;;;22.75;19.15;;;;;;;19.93;90.88;99628.00;5019338;28;20029;-88
2022/05/02 11:50:24;;;;;;;25.27;20.13;;;;;;;19.72;90.10;99611.66;5002751;28;20108;-86
2022/05/02 11:52:53;;;;;;;25.58;20.60;;;;;;;19.76;90.29;99620.75;5006211;28;20026;-89
2022/05/02 11:55:31;;;;;;;22.85;19.80;;;;;;;19.29;89.54;99587.19;5004455;28;20034;-88
2022/05/02 11:58:18;;;;;;;24.17;19.35;;;;;;;19.54;90.02;99573.53;5005610;28;20419;-86
2022/05/02 12:00:50;;;;;;;31.08;22.85;;;;;;;19.17;91.45;99597.91;4999492;28;20030;-86
2022/05/02 12:03:34;;;;;;;27.70;21.35;;;;;;;19.47;91.07;99615.50;4995823;28;20499;-88
2022/05/02 12:06:04;;;;;;;;;;;;;;;19.82;90.94;99619.78;4988696;28;20044;-86
2022/05/02 12:08:36;;;;;;;23.13;18.65;;;;;;;19.74;89.25;99598.06;5021461;28;20390;-86
2022/05/02 12:11:09;;;;;;;26.67;19.92;;;;;;;19.79;89.84;99609.63;5002247;28;20021;-88
2022/05/02 12:13:37;;;;;;;26.60;21.53;;;;;;;19.76;88.55;99602.13;5011895;28;20046;-88
2022/05/02 12:16:04;;;;;;;23.35;18.58;;;;;;;20.10;88.09;99623.47;5002015;28;20033;-87
2022/05/02 12:18:45;;;;;;;25.05;19.35;;;;;;;20.11;87.69;99609.09;4986758;28;20048;-86